sensor_id;sensor_type;location;lat;lon;timestamp;pressure;altitude;pressure_sealevel;temperature;humidity
68230;BME280;55048;52.220;5.160;2023-01-19T00:01:21;99876.63;;;3.54;90.23
68230;BME280;55048;52.220;5.160;2023-01-19T00:03:47;99748.41;;;2.81;89.87
68230;BME280;55048;52.220;5.160;2023-01-19T00:06:12;99794.91;;;3.05;90.53
68230;BME280;55048;52.220;5.160;2023-01-19T00:08:38;99784.66;;;2.97;90.52
68230;BME280;55048;52.220;5.160;2023-01-19T00:11:04;99850.53;;;3.59;91.08
68230;BME280;55048;52.220;5.160;2023-01-19T00:13:29;99840.03;;;3.59;91.25
68230;BME280;55048;52.220;5.160;2023-01-19T00:15:55;99844.41;;;3.65;91.61
68230;BME280;55048;52.220;5.160;2023-01-19T00:18:20;99820.44;;;3.55;91.49
68230;BME280;55048;52.220;5.160;2023-01-19T00:20:46;99808.25;;;3.61;91.76
68230;BME280;55048;52.220;5.160;2023-01-19T00:23:13;99834.84;;;3.71;93.42
68230;BME280;55048;52.220;5.160;2023-01-19T00:25:39;99779.69;;;3.39;92.29
68230;BME280;55048;52.220;5.160;2023-01-19T00:28:07;99765.75;;;3.39;91.79
68230;BME280;55048;52.220;5.160;2023-01-19T00:30:34;99857.50;;;3.97;91.94
68230;BME280;55048;52.220;5.160;2023-01-19T00:32:59;99858.44;;;4.02;91.57
68230;BME280;55048;52.220;5.160;2023-01-19T00:35:25;99546.03;;;2.08;91.58
68230;BME280;55048;52.220;5.160;2023-01-19T00:37:50;99848.13;;;4.01;91.91
68230;BME280;55048;52.220;5.160;2023-01-19T00:40:16;99856.09;;;4.13;91.66
68230;BME280;55048;52.220;5.160;2023-01-19T00:42:42;99759.97;;;3.55;91.54
68230;BME280;55048;52.220;5.160;2023-01-19T00:45:15;99855.53;;;4.11;91.79
68230;BME280;55048;52.220;5.160;2023-01-19T00:47:42;99735.47;;;3.36;91.66
68230;BME280;55048;52.220;5.160;2023-01-19T00:50:08;99760.88;;;3.42;91.94
68230;BME280;55048;52.220;5.160;2023-01-19T00:52:36;99853.25;;;4.14;91.52
68230;BME280;55048;52.220;5.160;2023-01-19T00:55:01;99813.31;;;3.80;91.39
68230;BME280;55048;52.220;5.160;2023-01-19T00:57:27;99767.22;;;3.60;91.19
68230;BME280;55048;52.220;5.160;2023-01-19T00:59:53;99798.72;;;3.84;91.51
68230;BME280;55048;52.220;5.160;2023-01-19T01:02:19;99834.53;;;4.04;91.41
68230;BME280;55048;52.220;5.160;2023-01-19T01:04:44;99647.94;;;2.92;91.40
68230;BME280;55048;52.220;5.160;2023-01-19T01:07:10;99805.31;;;3.94;91.61
68230;BME280;55048;52.220;5.160;2023-01-19T01:09:35;99819.81;;;3.96;91.28
68230;BME280;55048;52.220;5.160;2023-01-19T01:12:01;99824.25;;;4.02;91.21
68230;BME280;55048;52.220;5.160;2023-01-19T01:14:26;99861.00;;;4.27;91.35
68230;BME280;55048;52.220;5.160;2023-01-19T01:16:53;99873.75;;;4.30;91.23
68230;BME280;55048;52.220;5.160;2023-01-19T01:19:19;99776.56;;;3.74;91.18
68230;BME280;55048;52.220;5.160;2023-01-19T01:21:45;99818.44;;;3.94;91.13
68230;BME280;55048;52.220;5.160;2023-01-19T01:24:11;99861.53;;;4.36;91.65
68230;BME280;55048;52.220;5.160;2023-01-19T01:26:36;99851.50;;;4.26;91.98
68230;BME280;55048;52.220;5.160;2023-01-19T01:29:04;99813.50;;;4.04;91.77
68230;BME280;55048;52.220;5.160;2023-01-19T01:31:30;99785.94;;;3.88;91.71
68230;BME280;55048;52.220;5.160;2023-01-19T01:33:56;99860.44;;;4.44;91.29
68230;BME280;55048;52.220;5.160;2023-01-19T01:36:21;99662.50;;;3.13;91.17
68230;BME280;55048;52.220;5.160;2023-01-19T01:38:47;99843.34;;;4.34;91.36
68230;BME280;55048;52.220;5.160;2023-01-19T01:41:12;99585.84;;;2.54;91.44
68230;BME280;55048;52.220;5.160;2023-01-19T01:43:47;99817.59;;;4.18;91.30
68230;BME280;55048;52.220;5.160;2023-01-19T01:46:16;99877.91;;;4.56;91.77
68230;BME280;55048;52.220;5.160;2023-01-19T01:51:36;99857.00;;;4.25;92.62
68230;BME280;55048;52.220;5.160;2023-01-19T01:56:43;99881.84;;;4.47;93.77
68230;BME280;55048;52.220;5.160;2023-01-19T01:59:22;99870.50;;;4.28;93.27
68230;BME280;55048;52.220;5.160;2023-01-19T02:01:56;99877.56;;;4.34;94.29
68230;BME280;55048;52.220;5.160;2023-01-19T02:05:08;99914.94;;;4.43;93.87
68230;BME280;55048;52.220;5.160;2023-01-19T02:08:02;99838.72;;;4.12;93.18
68230;BME280;55048;52.220;5.160;2023-01-19T02:10:47;99888.75;;;4.48;92.96
68230;BME280;55048;52.220;5.160;2023-01-19T02:13:37;99855.75;;;4.27;92.31
68230;BME280;55048;52.220;5.160;2023-01-19T02:16:08;99894.59;;;4.50;92.27
68230;BME280;55048;52.220;5.160;2023-01-19T02:18:34;99896.66;;;4.48;91.98
68230;BME280;55048;52.220;5.160;2023-01-19T02:23:43;99823.75;;;3.69;92.11
68230;BME280;55048;52.220;5.160;2023-01-19T02:26:13;99926.00;;;4.27;92.08
68230;BME280;55048;52.220;5.160;2023-01-19T02:28:51;99931.38;;;4.39;92.28
68230;BME280;55048;52.220;5.160;2023-01-19T02:31:18;99938.91;;;4.35;92.26
68230;BME280;55048;52.220;5.160;2023-01-19T02:33:44;99961.97;;;4.33;92.17
68230;BME280;55048;52.220;5.160;2023-01-19T02:36:10;99683.59;;;2.50;92.34
68230;BME280;55048;52.220;5.160;2023-01-19T02:38:38;99944.44;;;4.27;92.95
68230;BME280;55048;52.220;5.160;2023-01-19T02:41:06;99966.94;;;4.23;92.15
68230;BME280;55048;52.220;5.160;2023-01-19T02:43:33;99749.00;;;2.83;92.62
68230;BME280;55048;52.220;5.160;2023-01-19T02:45:59;99915.56;;;3.95;92.00
68230;BME280;55048;52.220;5.160;2023-01-19T02:48:25;99840.81;;;3.60;91.69
68230;BME280;55048;52.220;5.160;2023-01-19T02:50:53;99852.88;;;3.67;91.81
68230;BME280;55048;52.220;5.160;2023-01-19T02:59:00;99937.94;;;4.29;91.01
68230;BME280;55048;52.220;5.160;2023-01-19T03:01:40;99933.03;;;4.33;90.22
68230;BME280;55048;52.220;5.160;2023-01-19T03:04:17;99903.31;;;4.07;89.06
68230;BME280;55048;52.220;5.160;2023-01-19T03:06:48;99929.53;;;4.39;89.32
68230;BME280;55048;52.220;5.160;2023-01-19T03:12:26;99933.34;;;4.43;88.66
68230;BME280;55048;52.220;5.160;2023-01-19T03:14:57;99909.84;;;4.23;89.01
68230;BME280;55048;52.220;5.160;2023-01-19T03:17:25;99947.91;;;4.46;87.99
68230;BME280;55048;52.220;5.160;2023-01-19T03:19:54;99964.00;;;4.56;87.72
68230;BME280;55048;52.220;5.160;2023-01-19T03:22:27;99897.94;;;4.21;87.55
68230;BME280;55048;52.220;5.160;2023-01-19T03:24:55;99942.50;;;4.59;87.80
68230;BME280;55048;52.220;5.160;2023-01-19T03:27:35;99961.88;;;4.65;87.87
68230;BME280;55048;52.220;5.160;2023-01-19T03:30:11;99966.34;;;4.64;87.64
68230;BME280;55048;52.220;5.160;2023-01-19T03:32:46;99803.41;;;3.57;87.69
68230;BME280;55048;52.220;5.160;2023-01-19T03:35:13;99976.50;;;4.60;88.11
68230;BME280;55048;52.220;5.160;2023-01-19T03:37:43;99954.63;;;4.42;88.69
68230;BME280;55048;52.220;5.160;2023-01-19T03:40:09;99846.22;;;3.65;88.95
68230;BME280;55048;52.220;5.160;2023-01-19T03:42:36;99959.00;;;4.29;88.80
68230;BME280;55048;52.220;5.160;2023-01-19T03:45:03;99972.88;;;4.37;88.75
68230;BME280;55048;52.220;5.160;2023-01-19T03:47:29;99995.94;;;4.41;88.81
68230;BME280;55048;52.220;5.160;2023-01-19T03:49:55;99994.19;;;4.35;90.00
68230;BME280;55048;52.220;5.160;2023-01-19T03:52:30;99998.63;;;4.34;89.62
68230;BME280;55048;52.220;5.160;2023-01-19T03:54:59;99855.50;;;3.42;89.49
68230;BME280;55048;52.220;5.160;2023-01-19T03:57:25;99904.44;;;3.68;89.49
68230;BME280;55048;52.220;5.160;2023-01-19T03:59:51;99997.78;;;4.16;89.70
68230;BME280;55048;52.220;5.160;2023-01-19T04:02:18;100002.19;;;4.22;89.87
68230;BME280;55048;52.220;5.160;2023-01-19T04:04:43;99997.97;;;4.14;89.90
68230;BME280;55048;52.220;5.160;2023-01-19T04:07:09;99953.41;;;3.69;89.96
68230;BME280;55048;52.220;5.160;2023-01-19T04:09:36;100005.94;;;4.07;90.10
68230;BME280;55048;52.220;5.160;2023-01-19T04:12:01;99996.47;;;4.00;90.07
68230;BME280;55048;52.220;5.160;2023-01-19T04:14:28;99873.88;;;3.11;89.36
68230;BME280;55048;52.220;5.160;2023-01-19T04:16:53;99977.78;;;3.83;89.28
68230;BME280;55048;52.220;5.160;2023-01-19T04:19:19;100007.00;;;4.00;89.43
68230;BME280;55048;52.220;5.160;2023-01-19T04:21:47;99980.84;;;3.80;89.42
68230;BME280;55048;52.220;5.160;2023-01-19T04:24:12;99953.41;;;3.69;89.49
68230;BME280;55048;52.220;5.160;2023-01-19T04:26:37;100039.72;;;4.11;89.43
68230;BME280;55048;52.220;5.160;2023-01-19T04:29:03;99945.28;;;3.71;89.36
68230;BME280;55048;52.220;5.160;2023-01-19T04:31:29;100029.38;;;4.16;88.97
68230;BME280;55048;52.220;5.160;2023-01-19T04:33:55;99959.22;;;3.78;88.86
68230;BME280;55048;52.220;5.160;2023-01-19T04:36:21;99986.31;;;3.78;89.22
68230;BME280;55048;52.220;5.160;2023-01-19T04:38:46;99958.75;;;3.56;89.02
68230;BME280;55048;52.220;5.160;2023-01-19T04:41:13;99985.84;;;3.88;89.16
68230;BME280;55048;52.220;5.160;2023-01-19T04:43:38;100030.28;;;3.96;89.31
68230;BME280;55048;52.220;5.160;2023-01-19T04:46:05;99982.88;;;3.78;89.30
68230;BME280;55048;52.220;5.160;2023-01-19T04:48:32;100052.06;;;4.10;89.04
68230;BME280;55048;52.220;5.160;2023-01-19T04:50:57;100030.13;;;3.91;89.14
68230;BME280;55048;52.220;5.160;2023-01-19T04:53:23;100048.41;;;4.11;89.39
68230;BME280;55048;52.220;5.160;2023-01-19T04:55:52;100012.97;;;3.82;88.97
68230;BME280;55048;52.220;5.160;2023-01-19T04:58:17;99771.47;;;2.34;89.22
68230;BME280;55048;52.220;5.160;2023-01-19T05:00:43;100053.94;;;4.03;89.55
68230;BME280;55048;52.220;5.160;2023-01-19T05:03:08;99836.28;;;2.78;89.39
68230;BME280;55048;52.220;5.160;2023-01-19T05:05:34;100004.66;;;3.85;89.38
68230;BME280;55048;52.220;5.160;2023-01-19T05:07:59;99983.53;;;3.67;89.33
68230;BME280;55048;52.220;5.160;2023-01-19T05:10:25;100040.16;;;4.01;89.27
68230;BME280;55048;52.220;5.160;2023-01-19T05:12:50;100009.53;;;3.81;89.34
68230;BME280;55048;52.220;5.160;2023-01-19T05:15:15;100045.56;;;4.13;89.66
68230;BME280;55048;52.220;5.160;2023-01-19T05:17:41;99900.50;;;3.21;89.09
68230;BME280;55048;52.220;5.160;2023-01-19T05:20:09;100060.72;;;4.17;89.80
68230;BME280;55048;52.220;5.160;2023-01-19T05:22:34;99883.25;;;3.00;90.08
68230;BME280;55048;52.220;5.160;2023-01-19T05:25:00;100091.25;;;4.25;89.96
68230;BME280;55048;52.220;5.160;2023-01-19T05:27:26;100064.72;;;4.26;89.28
68230;BME280;55048;52.220;5.160;2023-01-19T05:29:51;100068.53;;;4.30;89.46
68230;BME280;55048;52.220;5.160;2023-01-19T05:32:16;100047.50;;;4.24;89.73
68230;BME280;55048;52.220;5.160;2023-01-19T05:34:42;99782.47;;;2.56;89.54
68230;BME280;55048;52.220;5.160;2023-01-19T05:37:07;99886.53;;;3.27;89.63
68230;BME280;55048;52.220;5.160;2023-01-19T05:39:32;100008.16;;;4.11;89.30
68230;BME280;55048;52.220;5.160;2023-01-19T05:41:58;99866.34;;;3.21;89.30
68230;BME280;55048;52.220;5.160;2023-01-19T05:44:23;100041.25;;;4.25;89.14
68230;BME280;55048;52.220;5.160;2023-01-19T05:46:49;100048.84;;;4.33;88.89
68230;BME280;55048;52.220;5.160;2023-01-19T05:49:14;99873.19;;;3.28;88.56
68230;BME280;55048;52.220;5.160;2023-01-19T05:51:40;99970.25;;;3.87;88.65
68230;BME280;55048;52.220;5.160;2023-01-19T05:54:11;100045.00;;;4.35;88.48
68230;BME280;55048;52.220;5.160;2023-01-19T05:56:37;100075.25;;;4.51;88.50
68230;BME280;55048;52.220;5.160;2023-01-19T05:59:03;100039.19;;;4.27;88.56
68230;BME280;55048;52.220;5.160;2023-01-19T06:01:29;100095.41;;;4.64;88.33
68230;BME280;55048;52.220;5.160;2023-01-19T06:03:55;100017.66;;;4.12;88.29
68230;BME280;55048;52.220;5.160;2023-01-19T06:06:21;100074.91;;;4.41;88.43
68230;BME280;55048;52.220;5.160;2023-01-19T06:08:46;99997.56;;;3.92;88.06
68230;BME280;55048;52.220;5.160;2023-01-19T06:11:12;100080.50;;;4.51;87.76
68230;BME280;55048;52.220;5.160;2023-01-19T06:13:38;100117.00;;;4.73;87.75
68230;BME280;55048;52.220;5.160;2023-01-19T06:16:06;99986.41;;;3.90;87.50
68230;BME280;55048;52.220;5.160;2023-01-19T06:18:32;100124.28;;;4.77;87.68
68230;BME280;55048;52.220;5.160;2023-01-19T06:20:57;100112.13;;;4.76;87.33
68230;BME280;55048;52.220;5.160;2023-01-19T06:23:29;100121.63;;;4.77;87.32
68230;BME280;55048;52.220;5.160;2023-01-19T06:25:55;100126.69;;;4.79;86.95
68230;BME280;55048;52.220;5.160;2023-01-19T06:28:21;100024.19;;;4.02;86.54
68230;BME280;55048;52.220;5.160;2023-01-19T06:30:50;100131.94;;;4.79;87.05
68230;BME280;55048;52.220;5.160;2023-01-19T06:33:17;100079.59;;;4.39;86.79
68230;BME280;55048;52.220;5.160;2023-01-19T06:35:44;100141.69;;;4.78;86.55
68230;BME280;55048;52.220;5.160;2023-01-19T06:38:09;100029.47;;;3.96;86.41
68230;BME280;55048;52.220;5.160;2023-01-19T06:40:35;100136.34;;;4.60;86.25
68230;BME280;55048;52.220;5.160;2023-01-19T06:43:00;100132.28;;;4.64;86.32
68230;BME280;55048;52.220;5.160;2023-01-19T06:45:26;100062.22;;;4.06;86.10
68230;BME280;55048;52.220;5.160;2023-01-19T06:47:51;100106.34;;;4.36;86.16
68230;BME280;55048;52.220;5.160;2023-01-19T06:50:16;100132.81;;;4.48;85.84
68230;BME280;55048;52.220;5.160;2023-01-19T06:52:42;100068.31;;;4.00;85.85
68230;BME280;55048;52.220;5.160;2023-01-19T06:55:10;100103.59;;;4.24;85.94
68230;BME280;55048;52.220;5.160;2023-01-19T06:57:37;100175.63;;;4.61;85.63
68230;BME280;55048;52.220;5.160;2023-01-19T07:00:04;100165.00;;;4.50;85.74
68230;BME280;55048;52.220;5.160;2023-01-19T07:02:33;100118.63;;;4.17;85.54
68230;BME280;55048;52.220;5.160;2023-01-19T07:04:58;100074.09;;;3.84;85.67
68230;BME280;55048;52.220;5.160;2023-01-19T07:07:24;100174.09;;;4.47;85.72
68230;BME280;55048;52.220;5.160;2023-01-19T07:09:50;100052.72;;;3.67;85.63
68230;BME280;55048;52.220;5.160;2023-01-19T07:12:15;100186.53;;;4.40;85.58
68230;BME280;55048;52.220;5.160;2023-01-19T07:14:41;100201.63;;;4.51;85.53
68230;BME280;55048;52.220;5.160;2023-01-19T07:17:06;100195.81;;;4.43;85.51
68230;BME280;55048;52.220;5.160;2023-01-19T07:19:32;100191.59;;;4.35;85.52
68230;BME280;55048;52.220;5.160;2023-01-19T07:22:00;100152.09;;;4.03;85.71
68230;BME280;55048;52.220;5.160;2023-01-19T07:24:25;100107.03;;;3.87;85.51
68230;BME280;55048;52.220;5.160;2023-01-19T07:26:50;100227.31;;;4.63;85.72
68230;BME280;55048;52.220;5.160;2023-01-19T07:29:16;100157.25;;;4.23;85.79
68230;BME280;55048;52.220;5.160;2023-01-19T07:31:41;100237.22;;;4.67;85.22
68230;BME280;55048;52.220;5.160;2023-01-19T07:34:06;100212.44;;;4.43;85.73
68230;BME280;55048;52.220;5.160;2023-01-19T07:36:32;100167.59;;;4.18;85.34
68230;BME280;55048;52.220;5.160;2023-01-19T07:38:57;100139.78;;;3.97;85.31
68230;BME280;55048;52.220;5.160;2023-01-19T07:41:23;100222.56;;;4.40;85.16
68230;BME280;55048;52.220;5.160;2023-01-19T07:43:49;99977.63;;;2.88;85.40
68230;BME280;55048;52.220;5.160;2023-01-19T07:46:15;100202.84;;;4.17;85.28
68230;BME280;55048;52.220;5.160;2023-01-19T07:48:40;99942.78;;;2.61;85.29
68230;BME280;55048;52.220;5.160;2023-01-19T07:51:08;100251.25;;;4.54;85.67
68230;BME280;55048;52.220;5.160;2023-01-19T07:53:36;100217.78;;;4.23;85.33
68230;BME280;55048;52.220;5.160;2023-01-19T07:56:02;100215.75;;;4.25;85.34
68230;BME280;55048;52.220;5.160;2023-01-19T07:58:30;100235.41;;;4.23;84.76
68230;BME280;55048;52.220;5.160;2023-01-19T08:00:55;100016.03;;;2.83;84.99
68230;BME280;55048;52.220;5.160;2023-01-19T08:03:21;100188.56;;;3.93;85.03
68230;BME280;55048;52.220;5.160;2023-01-19T08:05:51;100104.84;;;3.32;84.91
68230;BME280;55048;52.220;5.160;2023-01-19T08:08:17;100258.50;;;4.21;84.86
68230;BME280;55048;52.220;5.160;2023-01-19T08:10:43;100278.25;;;4.37;84.98
68230;BME280;55048;52.220;5.160;2023-01-19T08:13:08;100241.16;;;4.06;84.86
68230;BME280;55048;52.220;5.160;2023-01-19T08:15:34;100294.09;;;4.30;84.64
68230;BME280;55048;52.220;5.160;2023-01-19T08:18:01;100136.38;;;3.32;84.61
68230;BME280;55048;52.220;5.160;2023-01-19T08:20:27;100298.56;;;4.23;84.68
68230;BME280;55048;52.220;5.160;2023-01-19T08:22:54;100236.34;;;3.77;84.63
68230;BME280;55048;52.220;5.160;2023-01-19T08:25:38;100309.72;;;4.25;84.83
68230;BME280;55048;52.220;5.160;2023-01-19T08:28:07;100307.47;;;4.22;85.00
68230;BME280;55048;52.220;5.160;2023-01-19T08:30:33;100243.25;;;3.71;85.09
68230;BME280;55048;52.220;5.160;2023-01-19T08:32:59;100325.31;;;4.13;84.85
68230;BME280;55048;52.220;5.160;2023-01-19T08:35:32;100330.97;;;4.17;85.18
68230;BME280;55048;52.220;5.160;2023-01-19T08:37:58;100337.47;;;4.21;85.11
68230;BME280;55048;52.220;5.160;2023-01-19T08:40:30;100284.28;;;3.92;84.86
68230;BME280;55048;52.220;5.160;2023-01-19T08:43:02;100318.44;;;4.05;84.83
68230;BME280;55048;52.220;5.160;2023-01-19T08:45:31;100344.91;;;4.24;84.20
68230;BME280;55048;52.220;5.160;2023-01-19T08:47:57;100313.00;;;4.07;84.17
68230;BME280;55048;52.220;5.160;2023-01-19T08:50:24;100257.44;;;3.57;83.82
68230;BME280;55048;52.220;5.160;2023-01-19T08:52:50;100287.53;;;3.88;83.94
68230;BME280;55048;52.220;5.160;2023-01-19T08:55:15;100259.25;;;3.70;83.52
68230;BME280;55048;52.220;5.160;2023-01-19T08:57:41;100349.38;;;4.23;83.48
68230;BME280;55048;52.220;5.160;2023-01-19T09:00:07;100310.38;;;4.07;83.42
68230;BME280;55048;52.220;5.160;2023-01-19T09:02:33;100097.63;;;2.74;83.63
68230;BME280;55048;52.220;5.160;2023-01-19T09:04:59;100359.44;;;4.46;83.67
68230;BME280;55048;52.220;5.160;2023-01-19T09:07:24;100327.13;;;4.26;83.60
68230;BME280;55048;52.220;5.160;2023-01-19T09:09:49;100256.16;;;3.93;83.17
68230;BME280;55048;52.220;5.160;2023-01-19T09:12:15;100234.72;;;3.89;82.98
68230;BME280;55048;52.220;5.160;2023-01-19T09:14:40;100368.28;;;4.72;83.08
68230;BME280;55048;52.220;5.160;2023-01-19T09:17:06;100344.00;;;4.56;82.75
68230;BME280;55048;52.220;5.160;2023-01-19T09:19:31;100181.84;;;3.32;82.83
68230;BME280;55048;52.220;5.160;2023-01-19T09:21:57;100331.28;;;4.47;82.92
68230;BME280;55048;52.220;5.160;2023-01-19T09:24:23;100329.31;;;4.29;82.82
68230;BME280;55048;52.220;5.160;2023-01-19T09:26:49;100379.81;;;4.77;83.42
68230;BME280;55048;52.220;5.160;2023-01-19T09:29:14;100382.44;;;4.77;82.97
68230;BME280;55048;52.220;5.160;2023-01-19T09:31:41;100375.72;;;4.81;82.98
68230;BME280;55048;52.220;5.160;2023-01-19T09:34:07;100375.09;;;4.86;83.12
68230;BME280;55048;52.220;5.160;2023-01-19T09:36:33;100328.81;;;4.58;82.72
68230;BME280;55048;52.220;5.160;2023-01-19T09:39:00;100336.28;;;4.61;82.91
68230;BME280;55048;52.220;5.160;2023-01-19T09:41:27;100285.81;;;4.26;82.47
68230;BME280;55048;52.220;5.160;2023-01-19T09:43:56;100330.59;;;4.65;82.63
68230;BME280;55048;52.220;5.160;2023-01-19T09:46:35;100350.41;;;4.80;82.32
68230;BME280;55048;52.220;5.160;2023-01-19T09:49:11;100356.25;;;4.82;82.31
68230;BME280;55048;52.220;5.160;2023-01-19T09:51:41;100387.38;;;5.05;82.02
68230;BME280;55048;52.220;5.160;2023-01-19T09:54:10;100386.13;;;5.08;81.79
68230;BME280;55048;52.220;5.160;2023-01-19T09:56:41;100343.50;;;4.79;81.27
68230;BME280;55048;52.220;5.160;2023-01-19T10:04:36;100373.38;;;5.05;81.04
68230;BME280;55048;52.220;5.160;2023-01-19T10:09:55;100392.34;;;5.20;79.80
68230;BME280;55048;52.220;5.160;2023-01-19T10:12:34;100381.69;;;5.02;78.99
68230;BME280;55048;52.220;5.160;2023-01-19T10:15:30;100399.88;;;5.17;77.86
68230;BME280;55048;52.220;5.160;2023-01-19T10:20:47;100394.75;;;5.28;77.41
68230;BME280;55048;52.220;5.160;2023-01-19T10:23:36;100365.03;;;5.08;77.43
68230;BME280;55048;52.220;5.160;2023-01-19T10:26:35;100411.31;;;5.35;77.09
68230;BME280;55048;52.220;5.160;2023-01-19T10:29:07;100396.34;;;5.29;75.82
68230;BME280;55048;52.220;5.160;2023-01-19T10:31:36;100390.31;;;5.22;75.26
68230;BME280;55048;52.220;5.160;2023-01-19T10:34:03;100409.47;;;5.36;74.04
68230;BME280;55048;52.220;5.160;2023-01-19T10:36:38;100370.22;;;5.28;74.16
68230;BME280;55048;52.220;5.160;2023-01-19T10:39:05;100360.09;;;5.25;73.26
68230;BME280;55048;52.220;5.160;2023-01-19T10:41:41;100414.84;;;5.54;72.53
68230;BME280;55048;52.220;5.160;2023-01-19T10:44:08;100412.66;;;5.51;72.40
68230;BME280;55048;52.220;5.160;2023-01-19T10:46:48;100389.25;;;5.30;71.36
68230;BME280;55048;52.220;5.160;2023-01-19T10:49:36;100399.16;;;5.34;71.25
68230;BME280;55048;52.220;5.160;2023-01-19T10:52:04;100360.38;;;5.10;70.19
68230;BME280;55048;52.220;5.160;2023-01-19T10:54:32;100406.66;;;5.37;70.12
68230;BME280;55048;52.220;5.160;2023-01-19T10:57:06;100410.81;;;5.52;70.53
68230;BME280;55048;52.220;5.160;2023-01-19T10:59:50;100371.22;;;5.27;70.23
68230;BME280;55048;52.220;5.160;2023-01-19T11:02:23;100392.38;;;5.45;70.57
68230;BME280;55048;52.220;5.160;2023-01-19T11:05:00;100402.84;;;5.58;70.02
68230;BME280;55048;52.220;5.160;2023-01-19T11:07:31;100403.56;;;5.72;69.47
68230;BME280;55048;52.220;5.160;2023-01-19T11:12:39;100389.88;;;5.57;68.74
68230;BME280;55048;52.220;5.160;2023-01-19T11:15:11;100417.31;;;5.81;68.95
68230;BME280;55048;52.220;5.160;2023-01-19T11:17:41;100359.38;;;5.36;68.93
68230;BME280;55048;52.220;5.160;2023-01-19T11:20:18;100417.16;;;5.76;69.17
68230;BME280;55048;52.220;5.160;2023-01-19T11:22:45;100353.94;;;5.31;68.66
68230;BME280;55048;52.220;5.160;2023-01-19T11:25:28;100358.94;;;5.46;69.64
68230;BME280;55048;52.220;5.160;2023-01-19T11:27:55;100345.28;;;5.55;68.59
68230;BME280;55048;52.220;5.160;2023-01-19T11:30:24;100391.56;;;5.76;67.90
68230;BME280;55048;52.220;5.160;2023-01-19T11:32:50;100350.25;;;5.63;66.97
68230;BME280;55048;52.220;5.160;2023-01-19T11:40:39;100386.78;;;5.92;64.39
68230;BME280;55048;52.220;5.160;2023-01-19T11:43:04;100379.22;;;6.02;63.77
68230;BME280;55048;52.220;5.160;2023-01-19T11:45:31;100423.78;;;6.35;63.91
68230;BME280;55048;52.220;5.160;2023-01-19T11:48:02;100306.47;;;5.81;64.19
68230;BME280;55048;52.220;5.160;2023-01-19T11:53:13;100415.22;;;6.58;63.25
68230;BME280;55048;52.220;5.160;2023-01-19T11:55:59;100385.09;;;6.41;63.55
68230;BME280;55048;52.220;5.160;2023-01-19T11:58:27;100408.66;;;6.60;62.71
68230;BME280;55048;52.220;5.160;2023-01-19T12:03:43;100424.00;;;6.70;63.09
68230;BME280;55048;52.220;5.160;2023-01-19T12:06:14;100376.53;;;6.45;62.96
68230;BME280;55048;52.220;5.160;2023-01-19T12:08:46;100397.81;;;6.69;61.81
68230;BME280;55048;52.220;5.160;2023-01-19T12:11:17;100335.72;;;6.23;60.74
68230;BME280;55048;52.220;5.160;2023-01-19T12:13:46;100400.16;;;6.58;59.70
68230;BME280;55048;52.220;5.160;2023-01-19T12:16:18;100422.75;;;6.73;60.31
68230;BME280;55048;52.220;5.160;2023-01-19T12:18:47;100261.38;;;5.64;60.46
68230;BME280;55048;52.220;5.160;2023-01-19T12:21:17;100416.44;;;6.55;61.39
68230;BME280;55048;52.220;5.160;2023-01-19T12:24:15;100409.16;;;6.51;62.26
68230;BME280;55048;52.220;5.160;2023-01-19T12:29:17;100425.53;;;6.41;63.33
68230;BME280;55048;52.220;5.160;2023-01-19T12:31:43;100317.53;;;5.71;63.18
68230;BME280;55048;52.220;5.160;2023-01-19T12:36:50;100424.59;;;6.54;62.94
68230;BME280;55048;52.220;5.160;2023-01-19T12:39:19;100253.03;;;5.24;62.69
68230;BME280;55048;52.220;5.160;2023-01-19T12:41:45;100438.84;;;6.53;63.23
68230;BME280;55048;52.220;5.160;2023-01-19T12:46:58;100366.84;;;5.96;61.58
68230;BME280;55048;52.220;5.160;2023-01-19T13:02:52;100441.72;;;6.01;60.55
68230;BME280;55048;52.220;5.160;2023-01-19T13:05:21;100435.63;;;6.01;60.48
68230;BME280;55048;52.220;5.160;2023-01-19T13:13:39;100428.81;;;5.86;59.86
68230;BME280;55048;52.220;5.160;2023-01-19T13:18:56;100433.88;;;5.95;59.81
68230;BME280;55048;52.220;5.160;2023-01-19T13:21:37;100433.28;;;5.93;59.94
68230;BME280;55048;52.220;5.160;2023-01-19T13:26:39;100430.59;;;5.99;59.38
68230;BME280;55048;52.220;5.160;2023-01-19T13:29:07;100445.78;;;6.04;59.16
68230;BME280;55048;52.220;5.160;2023-01-19T13:31:39;100382.94;;;5.62;59.23
68230;BME280;55048;52.220;5.160;2023-01-19T13:34:16;100385.19;;;5.59;59.40
68230;BME280;55048;52.220;5.160;2023-01-19T13:36:44;100453.47;;;6.05;59.60
68230;BME280;55048;52.220;5.160;2023-01-19T13:39:14;100429.81;;;5.92;59.92
68230;BME280;55048;52.220;5.160;2023-01-19T13:41:41;100436.03;;;6.04;59.87
68230;BME280;55048;52.220;5.160;2023-01-19T13:44:09;100452.78;;;6.17;58.96
68230;BME280;55048;52.220;5.160;2023-01-19T13:46:37;100455.22;;;5.86;59.28
68230;BME280;55048;52.220;5.160;2023-01-19T13:49:16;100390.44;;;5.66;59.40
68230;BME280;55048;52.220;5.160;2023-01-19T13:51:43;100293.09;;;4.76;58.63
68230;BME280;55048;52.220;5.160;2023-01-19T13:54:14;100460.59;;;6.05;59.30
68230;BME280;55048;52.220;5.160;2023-01-19T13:56:46;100446.56;;;5.79;59.40
68230;BME280;55048;52.220;5.160;2023-01-19T13:59:12;100466.09;;;6.03;59.98
68230;BME280;55048;52.220;5.160;2023-01-19T14:01:41;100389.31;;;5.55;58.94
68230;BME280;55048;52.220;5.160;2023-01-19T14:04:27;100467.88;;;6.09;59.39
68230;BME280;55048;52.220;5.160;2023-01-19T14:06:56;100412.28;;;5.73;59.33
68230;BME280;55048;52.220;5.160;2023-01-19T14:09:22;100396.09;;;5.69;59.46
68230;BME280;55048;52.220;5.160;2023-01-19T14:14:34;100449.72;;;5.95;59.46
68230;BME280;55048;52.220;5.160;2023-01-19T14:17:00;100436.38;;;5.83;59.84
68230;BME280;55048;52.220;5.160;2023-01-19T14:19:25;100382.06;;;5.44;60.42
68230;BME280;55048;52.220;5.160;2023-01-19T14:22:02;100467.13;;;6.02;60.36
68230;BME280;55048;52.220;5.160;2023-01-19T14:24:28;100484.50;;;6.10;60.55
68230;BME280;55048;52.220;5.160;2023-01-19T14:27:16;100485.16;;;6.05;60.65
68230;BME280;55048;52.220;5.160;2023-01-19T14:29:44;100442.72;;;5.75;60.76